createdAt,value
2023-02-05T00:02:21.290Z,2.70
2023-02-05T00:04:49.845Z,2.43
2023-02-05T00:07:19.629Z,2.70
2023-02-05T00:09:48.046Z,2.60
2023-02-05T00:12:16.535Z,2.30
2023-02-05T00:14:45.249Z,2.57
2023-02-05T00:17:13.641Z,2.70
2023-02-05T00:19:42.475Z,2.80
2023-02-05T00:22:10.888Z,2.53
2023-02-05T00:24:40.680Z,2.30
2023-02-05T00:27:10.187Z,2.70
2023-02-05T00:29:38.848Z,2.40
2023-02-05T00:32:07.343Z,2.60
2023-02-05T00:34:35.747Z,2.57
2023-02-05T00:37:04.173Z,2.50
2023-02-05T00:39:32.576Z,2.50
2023-02-05T00:42:02.362Z,2.87
2023-02-05T00:44:30.912Z,2.40
2023-02-05T00:46:59.295Z,2.30
2023-02-05T00:49:27.699Z,2.77
2023-02-05T00:51:56.112Z,2.40
2023-02-05T00:54:24.532Z,2.37
2023-02-05T00:56:52.916Z,2.57
2023-02-05T00:59:23.964Z,2.50
2023-02-05T01:01:52.788Z,2.20
2023-02-05T01:04:21.204Z,2.50
2023-02-05T01:06:49.628Z,2.50
2023-02-05T01:09:18.032Z,2.60
2023-02-05T01:11:46.509Z,2.23
2023-02-05T01:14:15.281Z,2.50
2023-02-05T01:16:45.058Z,2.60
2023-02-05T01:19:13.479Z,2.70
2023-02-05T01:21:41.909Z,2.57
2023-02-05T01:24:10.295Z,2.40
2023-02-05T01:26:38.676Z,2.67
2023-02-05T01:29:07.083Z,2.50
2023-02-05T01:31:35.596Z,2.20
2023-02-05T01:34:05.463Z,2.30
2023-02-05T01:36:34.187Z,2.33
2023-02-05T01:39:02.591Z,2.57
2023-02-05T01:41:31.012Z,2.60
2023-02-05T01:44:13.236Z,2.40
2023-02-05T01:46:42.433Z,2.50
2023-02-05T01:49:14.265Z,2.10
2023-02-05T01:51:42.878Z,2.50
2023-02-05T01:54:11.394Z,2.60
2023-02-05T01:56:41.962Z,2.73
2023-02-05T01:59:11.567Z,2.70
2023-02-05T02:01:41.073Z,2.60
2023-02-05T02:04:10.057Z,2.67
2023-02-05T02:06:39.980Z,3.13
2023-02-05T02:09:08.924Z,3.00
2023-02-05T02:11:38.417Z,2.63
2023-02-05T02:14:08.270Z,2.60
2023-02-05T02:16:37.429Z,2.63
2023-02-05T02:19:08.584Z,2.50
2023-02-05T02:21:55.867Z,2.60
2023-02-05T02:24:29.173Z,2.60
2023-02-05T02:27:15.941Z,2.50
2023-02-05T02:29:49.005Z,2.50
2023-02-05T02:32:20.491Z,2.30
2023-02-05T02:34:50.359Z,2.30
2023-02-05T02:37:22.754Z,2.37
2023-02-05T02:39:57.803Z,2.60
2023-02-05T02:42:28.683Z,2.83
2023-02-05T02:45:00.304Z,2.53
2023-02-05T02:47:31.565Z,2.63
2023-02-05T02:50:01.885Z,2.73
2023-02-05T02:52:31.612Z,2.70
2023-02-05T02:55:05.441Z,2.70
2023-02-05T02:57:35.607Z,2.50
2023-02-05T03:00:08.038Z,2.23
2023-02-05T03:02:37.630Z,2.43
2023-02-05T03:05:07.916Z,2.47
2023-02-05T03:07:38.228Z,2.70
2023-02-05T03:10:09.599Z,2.70
2023-02-05T03:12:38.268Z,2.60
2023-02-05T03:15:09.236Z,2.53
2023-02-05T03:17:38.164Z,2.60
2023-02-05T03:20:09.859Z,2.90
2023-02-05T03:22:38.300Z,2.60
2023-02-05T03:25:07.062Z,2.50
2023-02-05T03:27:35.868Z,2.30
2023-02-05T03:30:05.025Z,2.67
2023-02-05T03:32:41.110Z,2.40
2023-02-05T03:35:15.236Z,2.60
2023-02-05T03:37:48.769Z,2.53
2023-02-05T03:40:20.784Z,2.30
2023-02-05T03:42:55.196Z,2.27
2023-02-05T03:45:28.110Z,2.40
2023-02-05T03:48:03.869Z,2.57
2023-02-05T03:50:34.183Z,2.47
2023-02-05T03:53:05.949Z,2.50
2023-02-05T03:55:38.410Z,2.50
2023-02-05T03:58:09.065Z,2.50
2023-02-05T04:00:37.586Z,2.47
2023-02-05T04:03:07.377Z,2.47
2023-02-05T04:05:36.071Z,2.70
2023-02-05T04:08:04.762Z,2.90
2023-02-05T04:10:33.196Z,2.27
2023-02-05T04:13:01.676Z,2.80
2023-02-05T04:15:30.334Z,2.40
2023-02-05T04:17:58.999Z,2.50
2023-02-05T04:20:28.847Z,2.47
2023-02-05T04:22:57.240Z,2.67
2023-02-05T04:25:25.696Z,2.57
2023-02-05T04:27:54.169Z,2.43
2023-02-05T04:30:22.583Z,2.53
2023-02-05T04:32:51.015Z,2.67
2023-02-05T04:35:19.422Z,2.60
2023-02-05T04:37:49.186Z,2.60
2023-02-05T04:40:17.808Z,2.43
2023-02-05T04:42:46.244Z,2.70
2023-02-05T04:45:14.807Z,2.60
2023-02-05T04:47:43.283Z,2.70
2023-02-05T04:50:12.116Z,3.03
2023-02-05T04:52:40.515Z,2.47
2023-02-05T04:55:10.534Z,2.80
2023-02-05T04:57:39.033Z,2.80
2023-02-05T05:00:07.719Z,2.70
2023-02-05T05:02:36.156Z,2.90
2023-02-05T05:05:04.582Z,2.83
2023-02-05T05:07:32.981Z,2.90
2023-02-05T05:10:01.386Z,2.73
2023-02-05T05:12:31.218Z,2.73
2023-02-05T05:14:59.669Z,2.73
2023-02-05T05:17:28.094Z,2.77
2023-02-05T05:19:56.477Z,2.90
2023-02-05T05:22:24.976Z,2.87
2023-02-05T05:24:53.380Z,3.00
2023-02-05T05:27:23.176Z,2.83
2023-02-05T05:29:52.970Z,2.70
2023-02-05T05:32:21.391Z,3.00
2023-02-05T05:34:49.765Z,2.70
2023-02-05T05:37:18.163Z,2.90
2023-02-05T05:40:04.413Z,2.87
2023-02-05T05:42:50.558Z,2.93
2023-02-05T05:45:20.382Z,2.83
2023-02-05T05:47:48.794Z,3.03
2023-02-05T05:50:17.470Z,2.87
2023-02-05T05:52:46.186Z,2.80
2023-02-05T05:55:14.585Z,2.57
2023-02-05T05:57:42.947Z,2.87
2023-02-05T06:00:12.270Z,2.60
2023-02-05T06:02:44.720Z,2.80
2023-02-05T06:05:13.508Z,3.17
2023-02-05T06:07:41.943Z,2.60
2023-02-05T06:10:10.470Z,2.33
2023-02-05T06:12:38.913Z,2.63
2023-02-05T06:15:09.122Z,2.60
2023-02-05T06:17:37.517Z,2.90
2023-02-05T06:20:08.402Z,2.90
2023-02-05T06:22:36.908Z,2.50
2023-02-05T06:25:05.918Z,2.70
2023-02-05T06:27:34.355Z,2.70
2023-02-05T06:30:02.722Z,2.40
2023-02-05T06:32:31.092Z,3.03
2023-02-05T06:34:59.546Z,2.40
2023-02-05T06:37:46.092Z,2.47
2023-02-05T06:40:18.035Z,2.80
2023-02-05T06:42:46.667Z,2.70
2023-02-05T06:45:15.061Z,2.50
2023-02-05T06:47:43.502Z,2.50
2023-02-05T06:50:12.480Z,2.80
2023-02-05T06:52:42.281Z,2.63
2023-02-05T06:55:11.288Z,2.50
2023-02-05T06:57:39.695Z,2.50
2023-02-05T07:00:09.149Z,2.67
2023-02-05T07:02:37.631Z,2.90
2023-02-05T07:05:06.174Z,2.63
2023-02-05T07:07:34.750Z,2.87
2023-02-05T07:10:04.958Z,2.67
2023-02-05T07:12:33.649Z,2.90
2023-02-05T07:15:02.054Z,2.97
2023-02-05T07:17:30.470Z,2.27
2023-02-05T07:19:59.568Z,2.43
2023-02-05T07:22:28.007Z,2.50
2023-02-05T07:24:56.427Z,2.50
2023-02-05T07:27:26.212Z,2.50
2023-02-05T07:29:54.601Z,2.50
2023-02-05T07:32:23.035Z,2.50
2023-02-05T07:34:51.489Z,2.60
2023-02-05T07:37:21.500Z,2.60
2023-02-05T07:39:50.111Z,2.53
2023-02-05T07:42:18.519Z,2.70
2023-02-05T07:44:48.339Z,2.60
2023-02-05T07:47:16.775Z,3.00
2023-02-05T07:49:45.231Z,2.70
2023-02-05T07:52:13.724Z,2.70
2023-02-05T07:54:42.290Z,2.70
2023-02-05T07:57:11.226Z,2.90
2023-02-05T07:59:39.682Z,2.57
2023-02-05T08:02:09.757Z,2.50
2023-02-05T08:04:38.185Z,2.43
2023-02-05T08:07:06.638Z,2.57
2023-02-05T08:09:35.093Z,2.40
2023-02-05T08:12:03.827Z,2.60
2023-02-05T08:14:32.258Z,2.70
2023-02-05T08:17:00.676Z,2.70
2023-02-05T08:19:30.443Z,2.60
2023-02-05T08:21:58.819Z,2.40
2023-02-05T08:24:27.247Z,2.53
2023-02-05T08:26:55.629Z,2.40
2023-02-05T08:29:24.047Z,2.43
2023-02-05T08:31:52.525Z,2.70
2023-02-05T08:34:21.066Z,2.70
2023-02-05T08:36:50.873Z,2.40
2023-02-05T08:39:19.311Z,2.60
2023-02-05T08:41:47.710Z,2.50
2023-02-05T08:44:16.123Z,2.53
2023-02-05T08:46:50.232Z,2.20
2023-02-05T08:49:19.411Z,2.27
2023-02-05T08:51:47.842Z,1.93
2023-02-05T08:54:17.601Z,2.50
2023-02-05T08:56:46.613Z,2.50
2023-02-05T08:59:15.192Z,2.60
2023-02-05T09:01:44.074Z,2.40
2023-02-05T09:04:14.554Z,2.80
2023-02-05T09:06:43.345Z,2.33
2023-02-05T09:09:12.235Z,2.80
2023-02-05T09:11:42.090Z,2.40
2023-02-05T09:14:11.016Z,2.80
2023-02-05T09:16:39.689Z,2.87
2023-02-05T09:19:08.382Z,2.43
2023-02-05T09:21:36.831Z,2.73
2023-02-05T09:24:05.402Z,2.67
2023-02-05T09:26:33.810Z,2.60
2023-02-05T09:29:03.611Z,2.70
2023-02-05T09:31:32.136Z,3.10
2023-02-05T09:34:00.609Z,2.60
2023-02-05T09:36:29.038Z,2.70
2023-02-05T09:39:13.397Z,3.00
2023-02-05T09:41:49.356Z,2.77
2023-02-05T09:44:22.699Z,2.50
2023-02-05T09:46:54.236Z,2.67
2023-02-05T09:49:23.961Z,3.30
2023-02-05T09:51:53.431Z,3.20
2023-02-05T09:54:24.389Z,3.20
2023-02-05T09:56:54.885Z,3.50
2023-02-05T09:59:25.832Z,3.60
2023-02-05T10:01:55.139Z,3.17
2023-02-05T10:04:25.094Z,3.00
2023-02-05T10:07:18.718Z,3.30
2023-02-05T10:10:01.081Z,3.13
2023-02-05T10:12:36.172Z,3.03
2023-02-05T10:15:15.014Z,2.83
2023-02-05T10:17:50.733Z,2.93
2023-02-05T10:20:26.235Z,3.03
2023-02-05T10:22:59.429Z,2.70
2023-02-05T10:25:36.561Z,3.00
2023-02-05T10:28:07.961Z,2.77
2023-02-05T10:30:42.717Z,2.60
2023-02-05T10:33:15.824Z,2.83
2023-02-05T10:35:49.869Z,2.77
2023-02-05T10:38:19.629Z,3.40
2023-02-05T10:40:48.324Z,3.13
2023-02-05T10:43:21.000Z,3.30
2023-02-05T10:45:50.976Z,3.00
2023-02-05T10:48:33.234Z,2.60
2023-02-05T10:51:03.133Z,2.80
2023-02-05T10:53:32.263Z,2.60
2023-02-05T10:56:02.648Z,2.90
2023-02-05T10:58:38.093Z,3.30
2023-02-05T11:01:08.706Z,2.77
2023-02-05T11:03:37.528Z,2.90
2023-02-05T11:06:09.378Z,2.83
2023-02-05T11:08:39.097Z,3.30
2023-02-05T11:11:07.981Z,2.83
2023-02-05T11:13:38.303Z,2.60
2023-02-05T11:16:11.004Z,2.90
2023-02-05T11:18:41.597Z,2.87
2023-02-05T11:21:10.595Z,2.60
2023-02-05T11:23:41.028Z,3.43
2023-02-05T11:26:11.738Z,2.70
2023-02-05T11:28:40.884Z,2.80
2023-02-05T11:31:23.857Z,2.50
2023-02-05T11:33:52.336Z,2.57
2023-02-05T11:36:23.059Z,2.90
2023-02-05T11:38:52.848Z,2.77
2023-02-05T11:41:29.097Z,2.73
2023-02-05T11:43:58.379Z,2.80
2023-02-05T11:46:28.737Z,2.90
2023-02-05T11:48:58.884Z,3.40
2023-02-05T11:51:31.815Z,2.70
2023-02-05T11:54:01.672Z,3.10
2023-02-05T11:56:30.294Z,2.80
2023-02-05T11:59:02.007Z,2.80
2023-02-05T12:01:33.937Z,2.90
2023-02-05T12:04:03.564Z,2.60
2023-02-05T12:06:33.820Z,2.80
2023-02-05T12:09:02.689Z,2.80
2023-02-05T12:12:03.163Z,2.70
2023-02-05T12:14:38.392Z,2.57
2023-02-05T12:17:16.783Z,3.10
2023-02-05T12:19:49.012Z,3.03
2023-02-05T12:22:24.021Z,2.83
2023-02-05T12:25:03.520Z,2.93
2023-02-05T12:27:41.386Z,3.20
2023-02-05T12:30:19.047Z,3.00
2023-02-05T12:32:54.520Z,2.90
2023-02-05T12:35:34.516Z,2.70
2023-02-05T12:38:09.768Z,3.20
2023-02-05T12:40:41.308Z,2.67
2023-02-05T12:43:17.033Z,2.80
2023-02-05T12:45:50.628Z,2.80
2023-02-05T12:48:30.106Z,2.87
2023-02-05T12:51:06.314Z,2.90
2023-02-05T12:53:58.206Z,3.00
2023-02-05T12:56:37.662Z,3.17
2023-02-05T12:59:08.853Z,3.00
2023-02-05T13:01:42.180Z,2.60
2023-02-05T13:04:17.267Z,3.10
2023-02-05T13:06:50.250Z,2.80
2023-02-05T13:09:21.245Z,3.37
2023-02-05T13:11:53.517Z,3.10
2023-02-05T13:14:23.397Z,3.00
2023-02-05T13:16:54.459Z,3.30
2023-02-05T13:19:27.634Z,2.60
2023-02-05T13:22:15.311Z,2.80
2023-02-05T13:25:04.308Z,2.93
2023-02-05T13:27:53.251Z,3.07
2023-02-05T13:30:23.892Z,3.03
2023-02-05T13:32:53.411Z,2.90
2023-02-05T13:35:23.944Z,3.37
2023-02-05T13:38:10.595Z,3.27
2023-02-05T13:40:57.107Z,2.70
2023-02-05T13:43:37.326Z,3.10
2023-02-05T13:46:21.540Z,3.00
2023-02-05T13:49:02.437Z,3.07
2023-02-05T13:51:38.920Z,3.40
2023-02-05T13:54:20.774Z,2.90
2023-02-05T13:56:59.166Z,3.10
2023-02-05T13:59:33.563Z,2.67
2023-02-05T14:02:02.608Z,3.00
2023-02-05T14:04:33.648Z,3.23
2023-02-05T14:07:04.835Z,3.00
2023-02-05T14:09:35.745Z,2.90
2023-02-05T14:12:06.052Z,2.90
2023-02-05T14:14:36.042Z,3.43
2023-02-05T14:17:05.381Z,3.00
2023-02-05T14:19:57.093Z,2.73
2023-02-05T14:22:38.556Z,3.20
2023-02-05T14:25:27.267Z,3.10
2023-02-05T14:27:56.831Z,2.67
2023-02-05T14:30:37.782Z,3.13
2023-02-05T14:33:27.004Z,2.77
2023-02-05T14:35:57.233Z,3.23
2023-02-05T14:38:29.654Z,2.60
2023-02-05T14:41:05.020Z,3.00
2023-02-05T14:43:34.526Z,2.87
2023-02-05T14:46:05.665Z,2.90
2023-02-05T14:48:35.359Z,2.67
2023-02-05T14:51:08.351Z,3.10
2023-02-05T14:53:39.697Z,2.97
2023-02-05T14:56:08.845Z,2.70
2023-02-05T14:58:40.735Z,2.60
2023-02-05T15:01:27.846Z,2.90
2023-02-05T15:03:56.727Z,3.00
2023-02-05T15:06:27.144Z,3.00
2023-02-05T15:09:00.679Z,2.67
2023-02-05T15:11:35.767Z,2.93
2023-02-05T15:14:24.329Z,2.80
2023-02-05T15:17:20.024Z,2.97
2023-02-05T15:19:51.128Z,2.70
2023-02-05T15:22:26.089Z,3.13
2023-02-05T15:24:56.693Z,3.23
2023-02-05T15:27:28.298Z,2.60
2023-02-05T15:29:57.544Z,2.73
2023-02-05T15:32:27.732Z,2.70
2023-02-05T15:34:57.546Z,3.20
2023-02-05T15:37:28.557Z,2.90
2023-02-05T15:39:59.215Z,3.30
2023-02-05T15:42:30.885Z,3.43
2023-02-05T15:44:59.298Z,2.77
2023-02-05T15:47:29.657Z,2.93
2023-02-05T15:50:01.596Z,2.70
2023-02-05T15:52:31.643Z,3.00
2023-02-05T15:55:03.224Z,3.27
2023-02-05T15:57:32.752Z,3.20
2023-02-05T16:00:02.487Z,3.63
2023-02-05T16:02:31.917Z,3.57
2023-02-05T16:05:01.403Z,3.27
2023-02-05T16:07:30.560Z,3.03
2023-02-05T16:09:59.584Z,3.40
2023-02-05T16:12:31.393Z,3.80
2023-02-05T16:15:00.861Z,3.80
2023-02-05T16:17:31.309Z,4.17
2023-02-05T16:20:05.626Z,3.83
2023-02-05T16:22:39.096Z,4.03
2023-02-05T16:25:09.401Z,3.70
2023-02-05T16:27:42.707Z,4.30
2023-02-05T16:30:17.090Z,4.30
2023-02-05T16:32:45.509Z,4.10
2023-02-05T16:35:19.181Z,4.53
2023-02-05T16:37:47.649Z,4.90
2023-02-05T16:40:16.135Z,4.07
2023-02-05T16:42:47.874Z,4.10
2023-02-05T16:45:20.516Z,4.50
2023-02-05T16:48:03.757Z,3.90
2023-02-05T16:50:37.120Z,4.53
2023-02-05T16:53:14.040Z,4.80
2023-02-05T16:55:43.171Z,5.80
2023-02-05T16:58:17.033Z,5.10
2023-02-05T17:00:52.742Z,5.37
2023-02-05T17:03:21.506Z,5.60
2023-02-05T17:05:55.461Z,4.80
2023-02-05T17:08:30.739Z,5.30
2023-02-05T17:11:00.481Z,5.50
2023-02-05T17:13:32.127Z,5.30
2023-02-05T17:16:20.152Z,5.27
2023-02-05T17:18:55.267Z,5.50
2023-02-05T17:21:24.998Z,5.20
2023-02-05T17:23:54.117Z,5.73
2023-02-05T17:26:23.053Z,5.80
2023-02-05T17:28:57.122Z,5.73
2023-02-05T17:31:26.510Z,6.17
2023-02-05T17:33:56.139Z,5.83
2023-02-05T17:36:24.592Z,6.47
2023-02-05T17:38:53.059Z,6.10
2023-02-05T17:41:40.449Z,6.37
2023-02-05T17:44:12.054Z,6.27
2023-02-05T17:46:40.506Z,6.00
2023-02-05T17:49:09.049Z,6.33
2023-02-05T17:51:41.583Z,7.00
2023-02-05T17:54:13.813Z,7.10
2023-02-05T17:56:44.438Z,7.07
2023-02-05T17:59:15.511Z,7.60
2023-02-05T18:01:44.004Z,7.43
2023-02-05T18:04:13.043Z,7.00
2023-02-05T18:06:41.701Z,7.33
2023-02-05T18:09:10.722Z,7.90
2023-02-05T18:11:39.170Z,8.27
2023-02-05T18:14:08.497Z,7.93
2023-02-05T18:16:38.501Z,7.97
2023-02-05T18:19:07.046Z,8.20
2023-02-05T18:21:35.971Z,7.97
2023-02-05T18:24:04.530Z,8.60
2023-02-05T18:26:33.300Z,7.87
2023-02-05T18:29:01.731Z,8.07
2023-02-05T18:31:30.173Z,7.73
2023-02-05T18:33:59.989Z,8.43
2023-02-05T18:36:28.404Z,8.60
2023-02-05T18:38:58.598Z,8.33
2023-02-05T18:41:28.614Z,9.20
2023-02-05T18:43:57.247Z,9.00
2023-02-05T18:46:26.217Z,10.03
2023-02-05T18:48:56.426Z,8.47
2023-02-05T18:51:26.197Z,7.93
2023-02-05T18:53:54.687Z,8.57
2023-02-05T18:56:24.286Z,8.40
2023-02-05T18:58:53.499Z,8.03
2023-02-05T19:01:21.992Z,8.23
2023-02-05T19:03:52.803Z,7.97
2023-02-05T19:06:21.679Z,8.27
2023-02-05T19:08:51.849Z,7.60
2023-02-05T19:11:21.047Z,7.60
2023-02-05T19:13:50.156Z,7.30
2023-02-05T19:16:18.853Z,6.83
2023-02-05T19:18:47.799Z,7.23
2023-02-05T19:21:17.353Z,7.50
2023-02-05T19:23:46.422Z,7.50
2023-02-05T19:26:17.134Z,8.27
2023-02-05T19:28:46.361Z,8.93
2023-02-05T19:31:16.584Z,8.87
2023-02-05T19:33:45.627Z,9.47
2023-02-05T19:36:14.014Z,9.00
2023-02-05T19:38:42.799Z,9.67
2023-02-05T19:41:12.608Z,8.83
2023-02-05T19:43:43.563Z,8.73
2023-02-05T19:46:12.034Z,8.50
2023-02-05T19:48:40.496Z,8.17
2023-02-05T19:51:09.430Z,7.70
2023-02-05T19:53:38.942Z,7.70
2023-02-05T19:56:08.321Z,8.20
2023-02-05T19:58:37.074Z,7.00
2023-02-05T20:01:13.598Z,6.37
2023-02-05T20:03:42.079Z,5.70
2023-02-05T20:06:11.552Z,4.83
2023-02-05T20:08:40.047Z,4.47
2023-02-05T20:11:08.454Z,4.70
2023-02-05T20:13:37.900Z,4.13
2023-02-05T20:16:07.639Z,3.70
2023-02-05T20:18:37.560Z,4.20
2023-02-05T20:21:07.266Z,4.00
2023-02-05T20:23:35.777Z,3.97
2023-02-05T20:26:05.406Z,3.70
2023-02-05T20:28:34.435Z,3.60
2023-02-05T20:31:20.657Z,4.23
2023-02-05T20:33:50.505Z,4.17
2023-02-05T20:36:18.898Z,3.83
2023-02-05T20:38:47.373Z,3.50
2023-02-05T20:41:16.607Z,3.70
2023-02-05T20:43:45.103Z,4.07
2023-02-05T20:46:13.578Z,3.63
2023-02-05T20:48:42.033Z,3.77
2023-02-05T20:51:13.002Z,4.10
2023-02-05T20:53:41.718Z,4.13
2023-02-05T20:56:11.552Z,3.57
2023-02-05T20:58:39.958Z,3.77
2023-02-05T21:01:09.113Z,3.47
2023-02-05T21:03:37.858Z,3.77
2023-02-05T21:06:06.364Z,4.10
2023-02-05T21:08:36.341Z,4.00
2023-02-05T21:11:04.730Z,4.00
2023-02-05T21:13:33.394Z,3.70
2023-02-05T21:16:02.511Z,3.60
2023-02-05T21:18:31.408Z,3.60
2023-02-05T21:21:07.121Z,3.60
2023-02-05T21:23:37.312Z,3.77
2023-02-05T21:26:06.291Z,4.13
2023-02-05T21:28:35.011Z,3.83
2023-02-05T21:31:03.972Z,4.10
2023-02-05T21:33:32.551Z,3.43
2023-02-05T21:36:04.394Z,3.50
2023-02-05T21:38:34.248Z,3.90
2023-02-05T21:41:08.477Z,3.70
2023-02-05T21:43:37.096Z,4.30
2023-02-05T21:46:05.679Z,4.07
2023-02-05T21:48:34.143Z,3.50
2023-02-05T21:51:06.768Z,3.23
2023-02-05T21:53:35.210Z,3.47
2023-02-05T21:56:03.950Z,3.73
2023-02-05T21:58:34.702Z,3.63
2023-02-05T22:01:10.098Z,3.73
2023-02-05T22:03:38.615Z,3.63
2023-02-05T22:06:07.526Z,3.30
2023-02-05T22:08:36.361Z,3.73
2023-02-05T22:11:05.251Z,3.17
2023-02-05T22:13:36.015Z,3.50
2023-02-05T22:16:05.639Z,3.70
2023-02-05T22:18:34.819Z,3.67
2023-02-05T22:21:06.663Z,3.00
2023-02-05T22:23:35.110Z,3.37
2023-02-05T22:26:03.709Z,3.43
2023-02-05T22:28:32.203Z,3.77
2023-02-05T22:31:02.785Z,3.30
2023-02-05T22:33:32.043Z,3.47
2023-02-05T22:36:00.730Z,3.70
2023-02-05T22:38:29.534Z,3.50
2023-02-05T22:40:57.904Z,3.50
2023-02-05T22:43:26.422Z,3.67
2023-02-05T22:45:54.871Z,3.30
2023-02-05T22:48:24.664Z,3.27
2023-02-05T22:50:53.101Z,3.50
2023-02-05T22:53:21.509Z,3.70
2023-02-05T22:55:49.865Z,3.40
2023-02-05T22:58:18.276Z,3.47
2023-02-05T23:00:46.691Z,3.47
2023-02-05T23:03:15.163Z,3.73
2023-02-05T23:05:45.134Z,3.40
2023-02-05T23:08:13.561Z,3.63
2023-02-05T23:10:42.533Z,3.67
2023-02-05T23:13:10.947Z,3.27
2023-02-05T23:15:39.456Z,3.40
2023-02-05T23:18:07.888Z,3.70
2023-02-05T23:20:36.348Z,3.67
2023-02-05T23:23:06.072Z,3.60
2023-02-05T23:25:34.680Z,3.90
2023-02-05T23:28:03.247Z,3.50
2023-02-05T23:30:31.826Z,3.70
2023-02-05T23:33:00.251Z,3.20
2023-02-05T23:35:28.705Z,3.17
2023-02-05T23:37:57.087Z,3.67
2023-02-05T23:40:26.851Z,3.30
2023-02-05T23:42:55.258Z,4.00
2023-02-05T23:45:23.675Z,3.43
2023-02-05T23:47:52.045Z,3.73
2023-02-05T23:50:20.724Z,3.60
2023-02-05T23:52:49.116Z,3.37
2023-02-05T23:55:17.525Z,3.37
2023-02-05T23:57:49.405Z,3.47
